sensor_id;sensor_type;location;lat;lon;timestamp;temperature;humidity
40636;DHT22;26642;55.766;37.828;2023-05-10T00:01:13;14.80;40.80
40636;DHT22;26642;55.766;37.828;2023-05-10T00:03:39;14.70;40.60
40636;DHT22;26642;55.766;37.828;2023-05-10T00:06:06;14.70;40.40
40636;DHT22;26642;55.766;37.828;2023-05-10T00:08:31;14.70;40.40
40636;DHT22;26642;55.766;37.828;2023-05-10T00:10:57;14.80;40.40
40636;DHT22;26642;55.766;37.828;2023-05-10T00:13:23;14.70;40.30
40636;DHT22;26642;55.766;37.828;2023-05-10T00:15:49;14.70;40.30
40636;DHT22;26642;55.766;37.828;2023-05-10T00:18:16;14.70;40.60
40636;DHT22;26642;55.766;37.828;2023-05-10T00:20:42;14.70;40.90
40636;DHT22;26642;55.766;37.828;2023-05-10T00:23:08;14.70;41.10
40636;DHT22;26642;55.766;37.828;2023-05-10T00:25:34;14.60;41.10
40636;DHT22;26642;55.766;37.828;2023-05-10T00:28:00;14.60;41.10
40636;DHT22;26642;55.766;37.828;2023-05-10T00:30:27;14.60;41.00
40636;DHT22;26642;55.766;37.828;2023-05-10T00:32:54;14.60;40.90
40636;DHT22;26642;55.766;37.828;2023-05-10T00:35:20;14.60;41.00
40636;DHT22;26642;55.766;37.828;2023-05-10T00:37:47;14.60;41.00
40636;DHT22;26642;55.766;37.828;2023-05-10T00:40:14;14.60;41.00
40636;DHT22;26642;55.766;37.828;2023-05-10T00:42:43;14.60;40.90
40636;DHT22;26642;55.766;37.828;2023-05-10T00:45:09;14.60;40.80
40636;DHT22;26642;55.766;37.828;2023-05-10T00:47:35;14.50;40.70
40636;DHT22;26642;55.766;37.828;2023-05-10T00:50:02;14.60;40.70
40636;DHT22;26642;55.766;37.828;2023-05-10T00:52:29;14.50;40.60
40636;DHT22;26642;55.766;37.828;2023-05-10T00:54:55;14.50;40.60
40636;DHT22;26642;55.766;37.828;2023-05-10T00:57:22;14.60;40.50
40636;DHT22;26642;55.766;37.828;2023-05-10T00:59:49;14.60;40.70
40636;DHT22;26642;55.766;37.828;2023-05-10T01:02:15;14.60;41.00
40636;DHT22;26642;55.766;37.828;2023-05-10T01:04:41;14.60;41.10
40636;DHT22;26642;55.766;37.828;2023-05-10T01:07:07;14.60;41.00
40636;DHT22;26642;55.766;37.828;2023-05-10T01:09:33;14.50;40.90
40636;DHT22;26642;55.766;37.828;2023-05-10T01:12:00;14.50;40.90
40636;DHT22;26642;55.766;37.828;2023-05-10T01:14:28;14.50;41.10
40636;DHT22;26642;55.766;37.828;2023-05-10T01:16:55;14.50;41.20
40636;DHT22;26642;55.766;37.828;2023-05-10T01:19:27;14.50;41.50
40636;DHT22;26642;55.766;37.828;2023-05-10T01:27:14;14.50;42.30
40636;DHT22;26642;55.766;37.828;2023-05-10T01:32:34;14.50;41.80
40636;DHT22;26642;55.766;37.828;2023-05-10T01:35:06;14.40;42.10
40636;DHT22;26642;55.766;37.828;2023-05-10T01:37:42;14.40;41.30
40636;DHT22;26642;55.766;37.828;2023-05-10T01:43:33;14.40;42.10
40636;DHT22;26642;55.766;37.828;2023-05-10T01:46:09;14.40;42.30
40636;DHT22;26642;55.766;37.828;2023-05-10T01:48:51;14.40;42.20
40636;DHT22;26642;55.766;37.828;2023-05-10T01:51:22;14.40;42.20
40636;DHT22;26642;55.766;37.828;2023-05-10T01:53:50;14.40;42.20
40636;DHT22;26642;55.766;37.828;2023-05-10T01:56:19;14.40;42.20
40636;DHT22;26642;55.766;37.828;2023-05-10T01:58:49;14.30;42.00
40636;DHT22;26642;55.766;37.828;2023-05-10T02:01:20;14.30;41.90
40636;DHT22;26642;55.766;37.828;2023-05-10T02:03:47;14.40;41.80
40636;DHT22;26642;55.766;37.828;2023-05-10T02:06:14;14.40;41.70
40636;DHT22;26642;55.766;37.828;2023-05-10T02:08:43;14.40;41.80
40636;DHT22;26642;55.766;37.828;2023-05-10T02:11:13;14.30;41.80
40636;DHT22;26642;55.766;37.828;2023-05-10T02:13:39;14.30;41.80
40636;DHT22;26642;55.766;37.828;2023-05-10T02:16:07;14.30;41.70
40636;DHT22;26642;55.766;37.828;2023-05-10T02:18:34;14.40;41.60
40636;DHT22;26642;55.766;37.828;2023-05-10T02:21:02;14.30;41.50
40636;DHT22;26642;55.766;37.828;2023-05-10T02:23:29;14.40;41.40
40636;DHT22;26642;55.766;37.828;2023-05-10T02:25:57;14.30;41.90
40636;DHT22;26642;55.766;37.828;2023-05-10T02:28:24;14.30;41.20
40636;DHT22;26642;55.766;37.828;2023-05-10T02:30:52;14.40;41.20
40636;DHT22;26642;55.766;37.828;2023-05-10T02:33:20;14.30;41.00
40636;DHT22;26642;55.766;37.828;2023-05-10T02:35:47;14.30;40.90
40636;DHT22;26642;55.766;37.828;2023-05-10T02:38:14;14.30;40.90
40636;DHT22;26642;55.766;37.828;2023-05-10T02:40:41;14.30;41.00
40636;DHT22;26642;55.766;37.828;2023-05-10T02:43:12;14.30;41.00
40636;DHT22;26642;55.766;37.828;2023-05-10T02:45:40;14.30;41.00
40636;DHT22;26642;55.766;37.828;2023-05-10T02:48:09;14.30;41.10
40636;DHT22;26642;55.766;37.828;2023-05-10T02:50:35;14.30;41.10
40636;DHT22;26642;55.766;37.828;2023-05-10T02:53:09;14.30;41.10
40636;DHT22;26642;55.766;37.828;2023-05-10T02:55:40;14.30;41.20
40636;DHT22;26642;55.766;37.828;2023-05-10T02:58:06;14.30;41.20
40636;DHT22;26642;55.766;37.828;2023-05-10T03:00:33;14.30;41.30
40636;DHT22;26642;55.766;37.828;2023-05-10T03:02:59;14.30;41.30
40636;DHT22;26642;55.766;37.828;2023-05-10T03:05:27;14.30;41.00
40636;DHT22;26642;55.766;37.828;2023-05-10T03:07:53;14.30;41.60
40636;DHT22;26642;55.766;37.828;2023-05-10T03:10:25;14.30;40.90
40636;DHT22;26642;55.766;37.828;2023-05-10T03:13:24;14.30;40.80
40636;DHT22;26642;55.766;37.828;2023-05-10T03:15:58;14.30;40.60
40636;DHT22;26642;55.766;37.828;2023-05-10T03:18:50;14.30;40.50
40636;DHT22;26642;55.766;37.828;2023-05-10T03:21:22;14.30;40.60
40636;DHT22;26642;55.766;37.828;2023-05-10T03:24:04;14.30;40.80
40636;DHT22;26642;55.766;37.828;2023-05-10T03:26:32;14.40;40.90
40636;DHT22;26642;55.766;37.828;2023-05-10T03:29:13;14.40;41.10
40636;DHT22;26642;55.766;37.828;2023-05-10T03:31:40;14.40;41.10
40636;DHT22;26642;55.766;37.828;2023-05-10T03:34:06;14.40;40.90
40636;DHT22;26642;55.766;37.828;2023-05-10T03:36:32;14.30;40.70
40636;DHT22;26642;55.766;37.828;2023-05-10T03:38:59;14.40;40.80
40636;DHT22;26642;55.766;37.828;2023-05-10T03:41:26;14.40;40.60
40636;DHT22;26642;55.766;37.828;2023-05-10T03:43:53;14.40;40.60
40636;DHT22;26642;55.766;37.828;2023-05-10T03:46:19;14.40;40.60
40636;DHT22;26642;55.766;37.828;2023-05-10T03:48:45;14.40;40.60
40636;DHT22;26642;55.766;37.828;2023-05-10T03:51:11;14.40;40.70
40636;DHT22;26642;55.766;37.828;2023-05-10T03:53:38;14.40;41.00
40636;DHT22;26642;55.766;37.828;2023-05-10T03:56:04;14.40;41.00
40636;DHT22;26642;55.766;37.828;2023-05-10T03:58:30;14.50;41.20
40636;DHT22;26642;55.766;37.828;2023-05-10T04:00:57;14.50;41.30
40636;DHT22;26642;55.766;37.828;2023-05-10T04:03:24;14.50;41.30
40636;DHT22;26642;55.766;37.828;2023-05-10T04:06:01;14.50;41.30
40636;DHT22;26642;55.766;37.828;2023-05-10T04:08:27;14.50;41.30
40636;DHT22;26642;55.766;37.828;2023-05-10T04:10:54;14.50;41.50
40636;DHT22;26642;55.766;37.828;2023-05-10T04:13:20;14.50;41.70
40636;DHT22;26642;55.766;37.828;2023-05-10T04:15:46;14.60;41.70
40636;DHT22;26642;55.766;37.828;2023-05-10T04:18:12;14.60;41.90
40636;DHT22;26642;55.766;37.828;2023-05-10T04:20:38;14.60;41.80
40636;DHT22;26642;55.766;37.828;2023-05-10T04:23:04;14.60;41.80
40636;DHT22;26642;55.766;37.828;2023-05-10T04:25:30;14.70;41.80
40636;DHT22;26642;55.766;37.828;2023-05-10T04:27:56;14.70;41.70
40636;DHT22;26642;55.766;37.828;2023-05-10T04:30:22;14.70;41.60
40636;DHT22;26642;55.766;37.828;2023-05-10T04:32:48;14.70;41.60
40636;DHT22;26642;55.766;37.828;2023-05-10T04:35:13;14.70;41.50
40636;DHT22;26642;55.766;37.828;2023-05-10T04:37:40;14.70;41.50
40636;DHT22;26642;55.766;37.828;2023-05-10T04:40:06;14.80;41.40
40636;DHT22;26642;55.766;37.828;2023-05-10T04:42:32;14.80;41.30
40636;DHT22;26642;55.766;37.828;2023-05-10T04:44:58;14.80;41.30
40636;DHT22;26642;55.766;37.828;2023-05-10T04:47:24;14.80;41.20
40636;DHT22;26642;55.766;37.828;2023-05-10T04:49:50;14.90;41.00
40636;DHT22;26642;55.766;37.828;2023-05-10T04:52:16;14.90;40.80
40636;DHT22;26642;55.766;37.828;2023-05-10T04:54:43;15.00;40.70
40636;DHT22;26642;55.766;37.828;2023-05-10T04:57:09;15.10;40.60
40636;DHT22;26642;55.766;37.828;2023-05-10T04:59:36;15.10;40.50
40636;DHT22;26642;55.766;37.828;2023-05-10T05:02:02;15.10;40.40
40636;DHT22;26642;55.766;37.828;2023-05-10T05:04:29;15.20;40.30
40636;DHT22;26642;55.766;37.828;2023-05-10T05:06:56;15.20;40.10
40636;DHT22;26642;55.766;37.828;2023-05-10T05:09:22;15.20;40.10
40636;DHT22;26642;55.766;37.828;2023-05-10T05:11:48;15.30;39.90
40636;DHT22;26642;55.766;37.828;2023-05-10T05:14:14;15.40;40.00
40636;DHT22;26642;55.766;37.828;2023-05-10T05:16:40;15.40;41.70
40636;DHT22;26642;55.766;37.828;2023-05-10T05:19:06;15.50;43.10
40636;DHT22;26642;55.766;37.828;2023-05-10T05:21:32;15.60;43.60
40636;DHT22;26642;55.766;37.828;2023-05-10T05:23:58;15.70;43.40
40636;DHT22;26642;55.766;37.828;2023-05-10T05:26:24;15.80;43.20
40636;DHT22;26642;55.766;37.828;2023-05-10T05:28:50;15.90;43.40
40636;DHT22;26642;55.766;37.828;2023-05-10T05:31:19;16.00;42.70
40636;DHT22;26642;55.766;37.828;2023-05-10T05:33:45;16.00;42.50
40636;DHT22;26642;55.766;37.828;2023-05-10T05:36:11;16.10;42.40
40636;DHT22;26642;55.766;37.828;2023-05-10T05:38:37;16.10;42.00
40636;DHT22;26642;55.766;37.828;2023-05-10T05:41:03;16.10;42.00
40636;DHT22;26642;55.766;37.828;2023-05-10T05:43:29;16.20;41.70
40636;DHT22;26642;55.766;37.828;2023-05-10T05:45:55;16.20;41.50
40636;DHT22;26642;55.766;37.828;2023-05-10T05:48:23;16.30;41.30
40636;DHT22;26642;55.766;37.828;2023-05-10T05:50:49;16.30;41.00
40636;DHT22;26642;55.766;37.828;2023-05-10T05:53:15;16.30;40.50
40636;DHT22;26642;55.766;37.828;2023-05-10T05:55:51;16.40;40.30
40636;DHT22;26642;55.766;37.828;2023-05-10T05:58:18;16.40;40.00
40636;DHT22;26642;55.766;37.828;2023-05-10T06:00:44;16.40;39.70
40636;DHT22;26642;55.766;37.828;2023-05-10T06:03:10;16.50;39.70
40636;DHT22;26642;55.766;37.828;2023-05-10T06:05:36;16.50;39.50
40636;DHT22;26642;55.766;37.828;2023-05-10T06:08:02;16.60;39.30
40636;DHT22;26642;55.766;37.828;2023-05-10T06:10:28;16.60;39.30
40636;DHT22;26642;55.766;37.828;2023-05-10T06:12:54;16.60;38.90
40636;DHT22;26642;55.766;37.828;2023-05-10T06:15:20;16.70;38.50
40636;DHT22;26642;55.766;37.828;2023-05-10T06:17:46;16.80;38.70
40636;DHT22;26642;55.766;37.828;2023-05-10T06:20:15;16.80;38.70
40636;DHT22;26642;55.766;37.828;2023-05-10T06:22:41;16.90;38.70
40636;DHT22;26642;55.766;37.828;2023-05-10T06:25:08;16.90;38.20
40636;DHT22;26642;55.766;37.828;2023-05-10T06:27:34;17.00;38.30
40636;DHT22;26642;55.766;37.828;2023-05-10T06:30:00;17.10;38.30
40636;DHT22;26642;55.766;37.828;2023-05-10T06:32:26;17.20;38.20
40636;DHT22;26642;55.766;37.828;2023-05-10T06:34:51;17.30;37.90
40636;DHT22;26642;55.766;37.828;2023-05-10T06:37:17;17.30;37.80
40636;DHT22;26642;55.766;37.828;2023-05-10T06:39:43;17.40;37.80
40636;DHT22;26642;55.766;37.828;2023-05-10T06:42:09;17.50;37.40
40636;DHT22;26642;55.766;37.828;2023-05-10T06:44:35;17.50;37.10
40636;DHT22;26642;55.766;37.828;2023-05-10T06:47:01;17.50;36.70
40636;DHT22;26642;55.766;37.828;2023-05-10T06:49:27;17.50;36.40
40636;DHT22;26642;55.766;37.828;2023-05-10T06:51:54;17.60;36.40
40636;DHT22;26642;55.766;37.828;2023-05-10T06:54:21;17.60;36.60
40636;DHT22;26642;55.766;37.828;2023-05-10T06:56:46;17.70;36.40
40636;DHT22;26642;55.766;37.828;2023-05-10T06:59:12;17.70;36.10
40636;DHT22;26642;55.766;37.828;2023-05-10T07:01:39;17.80;36.10
40636;DHT22;26642;55.766;37.828;2023-05-10T07:04:05;17.80;35.90
40636;DHT22;26642;55.766;37.828;2023-05-10T07:06:33;17.90;36.00
40636;DHT22;26642;55.766;37.828;2023-05-10T07:08:59;17.90;36.00
40636;DHT22;26642;55.766;37.828;2023-05-10T07:11:26;18.00;36.00
40636;DHT22;26642;55.766;37.828;2023-05-10T07:13:52;18.00;36.30
40636;DHT22;26642;55.766;37.828;2023-05-10T07:16:19;18.00;35.90
40636;DHT22;26642;55.766;37.828;2023-05-10T07:18:45;18.10;36.10
40636;DHT22;26642;55.766;37.828;2023-05-10T07:21:10;18.20;36.30
40636;DHT22;26642;55.766;37.828;2023-05-10T07:23:36;18.10;36.10
40636;DHT22;26642;55.766;37.828;2023-05-10T07:26:03;18.20;36.30
40636;DHT22;26642;55.766;37.828;2023-05-10T07:28:29;18.30;36.70
40636;DHT22;26642;55.766;37.828;2023-05-10T07:30:55;18.30;36.30
40636;DHT22;26642;55.766;37.828;2023-05-10T07:33:21;18.40;36.50
40636;DHT22;26642;55.766;37.828;2023-05-10T07:35:47;18.50;36.60
40636;DHT22;26642;55.766;37.828;2023-05-10T07:38:12;18.50;36.60
40636;DHT22;26642;55.766;37.828;2023-05-10T07:40:39;18.60;36.50
40636;DHT22;26642;55.766;37.828;2023-05-10T07:43:05;18.70;36.00
40636;DHT22;26642;55.766;37.828;2023-05-10T07:45:31;18.70;35.90
40636;DHT22;26642;55.766;37.828;2023-05-10T07:47:58;18.80;36.00
40636;DHT22;26642;55.766;37.828;2023-05-10T07:50:23;18.90;36.00
40636;DHT22;26642;55.766;37.828;2023-05-10T07:52:49;19.00;35.80
40636;DHT22;26642;55.766;37.828;2023-05-10T07:55:15;19.00;35.70
40636;DHT22;26642;55.766;37.828;2023-05-10T07:57:43;19.10;35.80
40636;DHT22;26642;55.766;37.828;2023-05-10T08:00:12;19.20;35.40
40636;DHT22;26642;55.766;37.828;2023-05-10T08:02:39;19.20;35.60
40636;DHT22;26642;55.766;37.828;2023-05-10T08:05:05;19.30;35.20
40636;DHT22;26642;55.766;37.828;2023-05-10T08:07:31;19.40;35.60
40636;DHT22;26642;55.766;37.828;2023-05-10T08:09:57;19.40;35.30
40636;DHT22;26642;55.766;37.828;2023-05-10T08:12:23;19.40;35.80
40636;DHT22;26642;55.766;37.828;2023-05-10T08:14:49;19.50;35.70
40636;DHT22;26642;55.766;37.828;2023-05-10T08:17:15;19.50;35.60
40636;DHT22;26642;55.766;37.828;2023-05-10T08:19:41;19.50;35.50
40636;DHT22;26642;55.766;37.828;2023-05-10T08:22:07;19.50;35.80
40636;DHT22;26642;55.766;37.828;2023-05-10T08:24:33;19.50;36.10
40636;DHT22;26642;55.766;37.828;2023-05-10T08:27:05;19.50;34.00
40636;DHT22;26642;55.766;37.828;2023-05-10T08:29:31;19.40;34.00
40636;DHT22;26642;55.766;37.828;2023-05-10T08:31:57;19.40;34.20
40636;DHT22;26642;55.766;37.828;2023-05-10T08:34:23;19.50;34.00
40636;DHT22;26642;55.766;37.828;2023-05-10T08:36:49;19.50;34.90
40636;DHT22;26642;55.766;37.828;2023-05-10T08:39:15;19.50;35.50
40636;DHT22;26642;55.766;37.828;2023-05-10T08:41:44;19.50;35.50
40636;DHT22;26642;55.766;37.828;2023-05-10T08:44:10;19.50;34.20
40636;DHT22;26642;55.766;37.828;2023-05-10T08:46:37;19.50;34.70
40636;DHT22;26642;55.766;37.828;2023-05-10T08:49:13;19.50;33.60
40636;DHT22;26642;55.766;37.828;2023-05-10T08:51:45;19.50;32.40
40636;DHT22;26642;55.766;37.828;2023-05-10T08:54:13;19.40;33.30
40636;DHT22;26642;55.766;37.828;2023-05-10T08:56:39;19.50;33.30
40636;DHT22;26642;55.766;37.828;2023-05-10T08:59:05;19.50;33.70
40636;DHT22;26642;55.766;37.828;2023-05-10T09:01:32;19.50;34.30
40636;DHT22;26642;55.766;37.828;2023-05-10T09:03:59;19.50;34.70
40636;DHT22;26642;55.766;37.828;2023-05-10T09:06:25;19.60;34.50
40636;DHT22;26642;55.766;37.828;2023-05-10T09:08:52;19.60;35.00
40636;DHT22;26642;55.766;37.828;2023-05-10T09:11:19;19.60;34.90
40636;DHT22;26642;55.766;37.828;2023-05-10T09:13:47;19.60;34.30
40636;DHT22;26642;55.766;37.828;2023-05-10T09:16:14;19.60;33.70
40636;DHT22;26642;55.766;37.828;2023-05-10T09:18:40;19.60;32.70
40636;DHT22;26642;55.766;37.828;2023-05-10T09:21:06;19.50;32.20
40636;DHT22;26642;55.766;37.828;2023-05-10T09:23:32;19.50;31.70
40636;DHT22;26642;55.766;37.828;2023-05-10T09:26:03;19.50;31.90
40636;DHT22;26642;55.766;37.828;2023-05-10T09:31:18;19.50;32.90
40636;DHT22;26642;55.766;37.828;2023-05-10T09:33:45;19.50;33.40
40636;DHT22;26642;55.766;37.828;2023-05-10T09:36:14;19.50;33.60
40636;DHT22;26642;55.766;37.828;2023-05-10T09:38:51;19.60;33.70
40636;DHT22;26642;55.766;37.828;2023-05-10T09:41:22;19.50;32.60
40636;DHT22;26642;55.766;37.828;2023-05-10T09:43:49;19.60;33.80
40636;DHT22;26642;55.766;37.828;2023-05-10T09:46:15;19.60;35.40
40636;DHT22;26642;55.766;37.828;2023-05-10T09:48:43;19.60;36.00
40636;DHT22;26642;55.766;37.828;2023-05-10T09:51:10;19.70;36.30
40636;DHT22;26642;55.766;37.828;2023-05-10T09:53:36;19.70;36.90
40636;DHT22;26642;55.766;37.828;2023-05-10T09:56:02;19.70;36.70
40636;DHT22;26642;55.766;37.828;2023-05-10T09:58:28;19.70;34.50
40636;DHT22;26642;55.766;37.828;2023-05-10T10:00:54;19.60;33.40
40636;DHT22;26642;55.766;37.828;2023-05-10T10:03:21;19.60;33.30
40636;DHT22;26642;55.766;37.828;2023-05-10T10:05:48;19.60;32.30
40636;DHT22;26642;55.766;37.828;2023-05-10T10:08:15;19.60;32.10
40636;DHT22;26642;55.766;37.828;2023-05-10T10:10:42;19.60;32.10
40636;DHT22;26642;55.766;37.828;2023-05-10T10:13:10;19.50;32.40
40636;DHT22;26642;55.766;37.828;2023-05-10T10:15:37;19.60;32.70
40636;DHT22;26642;55.766;37.828;2023-05-10T10:18:03;19.60;32.90
40636;DHT22;26642;55.766;37.828;2023-05-10T10:20:30;19.60;33.20
40636;DHT22;26642;55.766;37.828;2023-05-10T10:22:56;19.60;33.70
40636;DHT22;26642;55.766;37.828;2023-05-10T10:25:22;19.60;34.20
40636;DHT22;26642;55.766;37.828;2023-05-10T10:28:04;19.60;33.70
40636;DHT22;26642;55.766;37.828;2023-05-10T10:30:50;19.60;33.90
40636;DHT22;26642;55.766;37.828;2023-05-10T10:36:20;19.60;33.70
40636;DHT22;26642;55.766;37.828;2023-05-10T10:41:36;19.60;33.90
40636;DHT22;26642;55.766;37.828;2023-05-10T10:49:33;19.60;34.70
40636;DHT22;26642;55.766;37.828;2023-05-10T11:03:11;19.60;35.70
40636;DHT22;26642;55.766;37.828;2023-05-10T11:05:44;19.60;35.30
40636;DHT22;26642;55.766;37.828;2023-05-10T11:10:39;19.60;34.30
40636;DHT22;26642;55.766;37.828;2023-05-10T11:13:09;19.60;34.70
40636;DHT22;26642;55.766;37.828;2023-05-10T11:15:40;19.60;33.50
40636;DHT22;26642;55.766;37.828;2023-05-10T11:20:58;19.60;33.40
40636;DHT22;26642;55.766;37.828;2023-05-10T11:23:49;19.60;32.90
40636;DHT22;26642;55.766;37.828;2023-05-10T11:26:16;19.60;32.70
40636;DHT22;26642;55.766;37.828;2023-05-10T11:28:46;19.50;32.70
40636;DHT22;26642;55.766;37.828;2023-05-10T11:31:19;19.60;33.00
40636;DHT22;26642;55.766;37.828;2023-05-10T11:33:47;19.60;33.10
40636;DHT22;26642;55.766;37.828;2023-05-10T11:36:21;19.60;33.70
40636;DHT22;26642;55.766;37.828;2023-05-10T11:38:48;19.60;34.00
40636;DHT22;26642;55.766;37.828;2023-05-10T11:41:16;19.60;33.90
40636;DHT22;26642;55.766;37.828;2023-05-10T11:43:42;19.60;33.90
40636;DHT22;26642;55.766;37.828;2023-05-10T11:46:10;19.60;34.30
40636;DHT22;26642;55.766;37.828;2023-05-10T11:48:39;19.60;34.50
40636;DHT22;26642;55.766;37.828;2023-05-10T11:51:10;19.60;34.40
40636;DHT22;26642;55.766;37.828;2023-05-10T11:53:36;19.60;34.10
40636;DHT22;26642;55.766;37.828;2023-05-10T11:56:10;19.60;34.00
40636;DHT22;26642;55.766;37.828;2023-05-10T11:58:37;19.60;33.70
40636;DHT22;26642;55.766;37.828;2023-05-10T12:01:05;19.50;33.60
40636;DHT22;26642;55.766;37.828;2023-05-10T12:03:32;19.60;33.50
40636;DHT22;26642;55.766;37.828;2023-05-10T12:05:59;19.60;34.20
40636;DHT22;26642;55.766;37.828;2023-05-10T12:08:27;19.50;33.70
40636;DHT22;26642;55.766;37.828;2023-05-10T12:11:03;19.50;33.80
40636;DHT22;26642;55.766;37.828;2023-05-10T12:13:29;19.50;33.50
40636;DHT22;26642;55.766;37.828;2023-05-10T12:15:58;19.50;33.70
40636;DHT22;26642;55.766;37.828;2023-05-10T12:18:25;19.50;33.70
40636;DHT22;26642;55.766;37.828;2023-05-10T12:20:54;19.50;34.00
40636;DHT22;26642;55.766;37.828;2023-05-10T12:23:20;19.50;33.60
40636;DHT22;26642;55.766;37.828;2023-05-10T12:25:47;19.50;33.30
40636;DHT22;26642;55.766;37.828;2023-05-10T12:28:12;19.50;33.60
40636;DHT22;26642;55.766;37.828;2023-05-10T12:30:39;19.50;33.70
40636;DHT22;26642;55.766;37.828;2023-05-10T12:33:12;19.50;33.80
40636;DHT22;26642;55.766;37.828;2023-05-10T12:35:53;19.50;34.10
40636;DHT22;26642;55.766;37.828;2023-05-10T12:41:08;19.50;34.20
40636;DHT22;26642;55.766;37.828;2023-05-10T12:43:35;19.50;34.60
40636;DHT22;26642;55.766;37.828;2023-05-10T12:46:08;19.50;34.90
40636;DHT22;26642;55.766;37.828;2023-05-10T12:48:35;19.40;34.90
40636;DHT22;26642;55.766;37.828;2023-05-10T12:51:02;19.50;34.70
40636;DHT22;26642;55.766;37.828;2023-05-10T12:53:28;19.40;34.70
40636;DHT22;26642;55.766;37.828;2023-05-10T12:55:54;19.40;35.00
40636;DHT22;26642;55.766;37.828;2023-05-10T12:58:20;19.40;35.00
40636;DHT22;26642;55.766;37.828;2023-05-10T13:00:46;19.40;34.50
40636;DHT22;26642;55.766;37.828;2023-05-10T13:03:12;19.50;34.30
40636;DHT22;26642;55.766;37.828;2023-05-10T13:05:38;19.40;34.00
40636;DHT22;26642;55.766;37.828;2023-05-10T13:08:04;19.40;34.10
40636;DHT22;26642;55.766;37.828;2023-05-10T13:10:31;19.40;34.30
40636;DHT22;26642;55.766;37.828;2023-05-10T13:12:58;19.40;34.90
40636;DHT22;26642;55.766;37.828;2023-05-10T13:15:25;19.40;35.10
40636;DHT22;26642;55.766;37.828;2023-05-10T13:17:53;19.30;34.30
40636;DHT22;26642;55.766;37.828;2023-05-10T13:20:20;19.30;33.90
40636;DHT22;26642;55.766;37.828;2023-05-10T13:22:46;19.30;33.90
40636;DHT22;26642;55.766;37.828;2023-05-10T13:25:13;19.30;34.00
40636;DHT22;26642;55.766;37.828;2023-05-10T13:27:41;19.30;33.80
40636;DHT22;26642;55.766;37.828;2023-05-10T13:30:08;19.20;33.50
40636;DHT22;26642;55.766;37.828;2023-05-10T13:32:35;19.30;34.00
40636;DHT22;26642;55.766;37.828;2023-05-10T13:35:02;19.30;34.50
40636;DHT22;26642;55.766;37.828;2023-05-10T13:37:29;19.20;34.20
40636;DHT22;26642;55.766;37.828;2023-05-10T13:39:55;19.20;34.00
40636;DHT22;26642;55.766;37.828;2023-05-10T13:42:22;19.20;33.90
40636;DHT22;26642;55.766;37.828;2023-05-10T13:44:49;19.20;34.00
40636;DHT22;26642;55.766;37.828;2023-05-10T13:47:16;19.10;34.20
40636;DHT22;26642;55.766;37.828;2023-05-10T13:49:42;19.10;34.40
40636;DHT22;26642;55.766;37.828;2023-05-10T13:52:08;19.20;34.50
40636;DHT22;26642;55.766;37.828;2023-05-10T13:54:39;19.20;34.40
40636;DHT22;26642;55.766;37.828;2023-05-10T13:57:05;19.10;34.30
40636;DHT22;26642;55.766;37.828;2023-05-10T13:59:32;19.10;34.40
40636;DHT22;26642;55.766;37.828;2023-05-10T14:01:59;19.10;34.30
40636;DHT22;26642;55.766;37.828;2023-05-10T14:04:25;19.10;34.00
40636;DHT22;26642;55.766;37.828;2023-05-10T14:06:51;19.00;34.00
40636;DHT22;26642;55.766;37.828;2023-05-10T14:09:18;19.00;34.00
40636;DHT22;26642;55.766;37.828;2023-05-10T14:11:45;19.00;34.00
40636;DHT22;26642;55.766;37.828;2023-05-10T14:14:11;18.90;33.80
40636;DHT22;26642;55.766;37.828;2023-05-10T14:16:41;18.90;33.80
40636;DHT22;26642;55.766;37.828;2023-05-10T14:19:07;18.90;34.00
40636;DHT22;26642;55.766;37.828;2023-05-10T14:21:33;18.90;34.10
40636;DHT22;26642;55.766;37.828;2023-05-10T14:23:59;18.90;34.10
40636;DHT22;26642;55.766;37.828;2023-05-10T14:26:25;18.90;34.30
40636;DHT22;26642;55.766;37.828;2023-05-10T14:28:51;18.90;34.30
40636;DHT22;26642;55.766;37.828;2023-05-10T14:31:17;18.90;34.60
40636;DHT22;26642;55.766;37.828;2023-05-10T14:33:46;18.90;34.70
40636;DHT22;26642;55.766;37.828;2023-05-10T14:36:12;18.80;34.60
40636;DHT22;26642;55.766;37.828;2023-05-10T14:38:39;18.80;34.60
40636;DHT22;26642;55.766;37.828;2023-05-10T14:41:05;18.80;34.60
40636;DHT22;26642;55.766;37.828;2023-05-10T14:43:31;18.80;34.50
40636;DHT22;26642;55.766;37.828;2023-05-10T14:45:58;18.80;34.50
40636;DHT22;26642;55.766;37.828;2023-05-10T14:48:24;18.70;34.40
40636;DHT22;26642;55.766;37.828;2023-05-10T14:50:49;18.70;34.40
40636;DHT22;26642;55.766;37.828;2023-05-10T14:53:16;18.70;34.50
40636;DHT22;26642;55.766;37.828;2023-05-10T14:55:42;18.70;34.60
40636;DHT22;26642;55.766;37.828;2023-05-10T14:58:08;18.70;35.00
40636;DHT22;26642;55.766;37.828;2023-05-10T15:00:34;18.70;35.40
40636;DHT22;26642;55.766;37.828;2023-05-10T15:03:01;18.70;35.30
40636;DHT22;26642;55.766;37.828;2023-05-10T15:05:27;18.70;35.50
40636;DHT22;26642;55.766;37.828;2023-05-10T15:07:53;18.70;35.70
40636;DHT22;26642;55.766;37.828;2023-05-10T15:10:19;18.70;36.00
40636;DHT22;26642;55.766;37.828;2023-05-10T15:12:45;18.70;36.00
40636;DHT22;26642;55.766;37.828;2023-05-10T15:15:11;18.70;35.70
40636;DHT22;26642;55.766;37.828;2023-05-10T15:17:37;18.70;35.60
40636;DHT22;26642;55.766;37.828;2023-05-10T15:20:03;18.70;35.80
40636;DHT22;26642;55.766;37.828;2023-05-10T15:22:30;18.70;36.00
40636;DHT22;26642;55.766;37.828;2023-05-10T15:24:58;18.70;35.90
40636;DHT22;26642;55.766;37.828;2023-05-10T15:27:25;18.60;36.00
40636;DHT22;26642;55.766;37.828;2023-05-10T15:29:52;18.60;36.20
40636;DHT22;26642;55.766;37.828;2023-05-10T15:32:17;18.60;36.00
40636;DHT22;26642;55.766;37.828;2023-05-10T15:34:43;18.60;35.90
40636;DHT22;26642;55.766;37.828;2023-05-10T15:37:09;18.60;35.80
40636;DHT22;26642;55.766;37.828;2023-05-10T15:39:35;18.60;36.00
40636;DHT22;26642;55.766;37.828;2023-05-10T15:42:01;18.50;36.00
40636;DHT22;26642;55.766;37.828;2023-05-10T15:44:28;18.60;36.10
40636;DHT22;26642;55.766;37.828;2023-05-10T15:46:54;18.50;36.10
40636;DHT22;26642;55.766;37.828;2023-05-10T15:49:20;18.50;36.10
40636;DHT22;26642;55.766;37.828;2023-05-10T15:51:46;18.50;36.20
40636;DHT22;26642;55.766;37.828;2023-05-10T15:54:12;18.50;36.30
40636;DHT22;26642;55.766;37.828;2023-05-10T15:56:38;18.50;36.30
40636;DHT22;26642;55.766;37.828;2023-05-10T15:59:04;18.50;36.40
40636;DHT22;26642;55.766;37.828;2023-05-10T16:01:31;18.40;36.20